Time;durP1;ratioP1;P1;durP2;ratioP2;P2;SDS_P1;SDS_P2;PMS_P1;PMS_P2;Temp;Humidity;BMP_temperature;BMP_pressure;BME280_temperature;BME280_humidity;BME280_pressure;Samples;Min_cycle;Max_cycle;Signal;HPM_P1;HPM_P2
2021/11/03 00:01:52;;;;;;;;;50.00;42.25;;;;;12.22;90.91;101030.50;4937209;29;11286;-70
2021/11/03 00:04:48;;;;;;;;;44.25;37.75;;;;;12.08;91.96;101035.44;4923996;29;11273;-69
2021/11/03 00:07:44;;;;;;;;;47.00;40.50;;;;;12.21;91.80;101033.59;4936613;29;11059;-70
2021/11/03 00:10:42;;;;;;;;;33.75;33.25;;;;;12.20;91.86;101048.63;4918391;29;11570;-69
2021/11/03 00:13:39;;;;;;;;;38.75;36.00;;;;;12.34;91.41;101053.91;4916965;29;11180;-70
2021/11/03 00:16:34;;;;;;;;;39.50;37.50;;;;;12.39;91.05;101068.41;4917801;29;11163;-70
2021/11/03 00:19:30;;;;;;;;;41.75;36.75;;;;;12.33;91.27;101068.94;4916713;29;11517;-70
2021/11/03 00:22:25;;;;;;;;;36.00;35.00;;;;;12.39;91.88;101078.69;4924409;29;11235;-69
2021/11/03 00:25:21;;;;;;;;;40.25;37.00;;;;;12.36;91.47;101082.97;4935629;29;10900;-70
2021/11/03 00:28:19;;;;;;;;;43.00;38.00;;;;;12.37;91.53;101078.22;4936245;29;11149;-70
2021/11/03 00:31:15;;;;;;;;;42.50;38.00;;;;;12.37;91.37;101089.31;4936603;29;11078;-70
2021/11/03 00:34:10;;;;;;;;;37.00;36.00;;;;;12.32;91.82;101086.72;4936151;29;11322;-70
2021/11/03 00:37:06;;;;;;;;;44.50;39.00;;;;;12.33;92.00;101075.28;4923758;29;11270;-70
2021/11/03 00:40:04;;;;;;;;;41.50;38.00;;;;;12.32;91.91;101070.06;4936142;29;11246;-70
2021/11/03 00:43:00;;;;;;;;;35.75;35.00;;;;;12.36;91.87;101079.38;4936233;29;11171;-70
2021/11/03 00:45:55;;;;;;;;;35.75;34.75;;;;;12.48;90.88;101082.22;4936168;29;10954;-70
2021/11/03 00:48:51;;;;;;;;;39.50;35.25;;;;;12.55;89.98;101078.94;4923212;29;10993;-70
2021/11/03 00:51:47;;;;;;;;;36.00;35.25;;;;;12.54;90.38;101083.69;4923478;29;11169;-69
2021/11/03 00:54:42;;;;;;;;;29.50;28.50;;;;;12.59;90.05;101077.13;4935979;29;11627;-69
2021/11/03 00:57:38;;;;;;;;;28.75;28.75;;;;;12.49;90.19;101076.34;4923120;29;11738;-70
2021/11/03 01:00:34;;;;;;;;;29.75;29.25;;;;;12.53;89.51;101085.63;4935855;29;10822;-69
2021/11/03 01:03:30;;;;;;;;;30.00;28.25;;;;;12.46;89.26;101065.94;4935743;29;10913;-70
2021/11/03 01:06:26;;;;;;;;;30.00;28.50;;;;;12.31;89.92;101069.25;4917616;29;10767;-69
2021/11/03 01:09:22;;;;;;;;;29.50;28.75;;;;;12.35;89.68;101061.09;4903707;29;10963;-70
2021/11/03 01:12:18;;;;;;;;;29.25;27.50;;;;;12.42;89.31;101075.25;4916742;29;10790;-70
2021/11/03 01:15:17;;;;;;;;;26.00;26.00;;;;;12.42;89.59;101078.84;4904280;29;10906;-69
2021/11/03 01:18:12;;;;;;;;;26.00;25.75;;;;;12.27;89.18;101078.56;4918993;29;10778;-70
2021/11/03 01:21:08;;;;;;;;;27.75;27.25;;;;;12.33;89.56;101072.50;4934869;29;10989;-70
2021/11/03 01:24:05;;;;;;;;;33.00;33.00;;;;;12.41;89.35;101074.44;4935523;29;11566;-69
2021/11/03 01:27:01;;;;;;;;;29.50;29.50;;;;;12.34;89.54;101076.91;4935401;29;10913;-70
2021/11/03 01:29:56;;;;;;;;;36.25;35.00;;;;;12.33;89.58;101080.84;4935318;29;10900;-70
2021/11/03 01:32:54;;;;;;;;;45.50;41.00;;;;;12.32;89.65;101090.31;4922587;29;11148;-69
2021/11/03 01:35:50;;;;;;;;;60.50;50.25;;;;;12.30;89.77;101087.06;4935097;29;12269;-70
2021/11/03 01:38:46;;;;;;;;;63.50;51.00;;;;;12.35;89.75;101084.09;4922340;29;11461;-69
2021/11/03 01:41:41;;;;;;;;;67.50;55.00;;;;;12.38;89.71;101088.16;4935199;29;11554;-69
2021/11/03 01:44:37;;;;;;;;;49.50;42.75;;;;;12.39;89.13;101093.38;4935056;29;11656;-69
2021/11/03 01:48:13;;;;;;;;;56.50;48.50;;;;;12.25;89.85;101087.22;4934128;29;11497;-70
2021/11/03 01:51:14;;;;;;;;;59.50;48.25;;;;;12.29;90.03;101090.97;4922202;29;11504;-69
2021/11/03 01:54:14;;;;;;;;;61.00;51.25;;;;;12.40;89.39;101099.72;4935119;29;11558;-70
2021/11/03 01:57:14;;;;;;;;;68.75;54.50;;;;;12.41;89.64;101093.84;4933765;29;11543;-69
2021/11/03 02:00:20;;;;;;;;;67.00;55.50;;;;;12.40;89.36;101099.72;4934509;29;11562;-70
2021/11/03 02:03:20;;;;;;;;;58.50;48.75;;;;;12.35;89.66;101100.75;4935135;29;11542;-69
2021/11/03 02:06:19;;;;;;;;;55.25;47.25;;;;;12.37;89.41;101090.13;4922033;29;11494;-69
2021/11/03 02:09:15;;;;;;;;;34.50;32.75;;;;;12.22;90.00;101088.72;4934857;29;11687;-70
2021/11/03 02:12:36;;;;;;;;;29.75;29.75;;;;;12.30;89.29;101100.13;4922220;29;11073;-69
2021/11/03 02:15:33;;;;;;;;;32.50;32.50;;;;;12.27;89.38;101106.31;4922097;29;11011;-70
2021/11/03 02:18:31;;;;;;;;;33.75;33.75;;;;;12.23;89.71;101098.66;4934545;29;10849;-69
2021/11/03 02:21:38;;;;;;;;;37.00;36.00;;;;;12.35;89.93;101089.66;4934842;29;11163;-70
2021/11/03 02:25:10;;;;;;;;;34.00;33.00;;;;;12.22;89.61;101097.03;4934761;29;11040;-70
2021/11/03 02:28:07;;;;;;;;;25.50;23.25;;;;;12.29;89.48;101096.53;4925002;29;10929;-70
2021/11/03 02:31:03;;;;;;;;;25.50;25.50;;;;;12.20;89.36;101095.75;4934809;29;10842;-69
2021/11/03 02:34:02;;;;;;;;;27.50;27.25;;;;;12.18;89.63;101090.50;4938005;29;10837;-69
2021/11/03 02:36:58;;;;;;;;;27.00;27.00;;;;;12.21;89.89;101100.16;4938697;29;10864;-70
2021/11/03 02:40:02;;;;;;;;;27.75;27.75;;;;;12.29;88.79;101104.03;4938368;29;10826;-70
2021/11/03 02:43:21;;;;;;;;;27.25;27.25;;;;;12.35;88.67;101095.19;4938657;29;10916;-70
2021/11/03 02:46:18;;;;;;;;;32.25;32.00;;;;;12.24;88.90;101103.06;4938418;29;10845;-69
2021/11/03 02:48:58;;;;;;;;;28.25;28.25;;;;;12.19;88.89;101089.41;4938385;29;10865;-69
2021/11/03 02:51:54;;;;;;;;;23.50;22.75;;;;;12.32;88.78;101095.03;4925696;29;10931;-70
2021/11/03 02:54:50;;;;;;;;;29.50;28.75;;;;;12.28;88.98;101106.00;4925554;29;10850;-69
2021/11/03 02:57:46;;;;;;;;;27.00;27.00;;;;;12.40;88.43;101103.31;4925537;29;10853;-69
2021/11/03 03:00:42;;;;;;;;;22.75;22.75;;;;;12.24;89.30;101099.47;4938209;29;10947;-70
2021/11/03 03:03:37;;;;;;;;;27.50;27.50;;;;;12.31;89.31;101102.56;4938371;29;10916;-69
2021/11/03 03:06:33;;;;;;;;;33.25;33.25;;;;;12.36;89.10;101094.06;4919074;29;10909;-69
2021/11/03 03:09:29;;;;;;;;;30.50;30.50;;;;;12.24;89.68;101091.16;4918878;29;10937;-70
2021/11/03 03:12:27;;;;;;;;;24.75;24.75;;;;;12.25;89.41;101090.81;4918929;29;11657;-70
2021/11/03 03:15:24;;;;;;;;;39.50;35.50;;;;;12.16;89.97;101078.13;4913627;29;10866;-70
2021/11/03 03:18:19;;;;;;;;;32.00;32.00;;;;;12.27;89.73;101087.72;4937660;29;11120;-70
2021/11/03 03:21:18;;;;;;;;;25.00;24.75;;;;;12.30;89.61;101098.16;4925131;29;10919;-69
2021/11/03 03:24:15;;;;;;;;;29.50;29.50;;;;;12.31;89.57;101094.22;4925843;29;10821;-70
2021/11/03 03:27:11;;;;;;;;;30.75;29.75;;;;;12.38;89.76;101102.03;4925586;29;10746;-70
2021/11/03 03:30:07;;;;;;;;;28.75;28.75;;;;;12.53;89.03;101110.59;4924999;29;10832;-69
2021/11/03 03:33:02;;;;;;;;;32.75;30.75;;;;;12.48;89.69;101112.75;4937380;29;10761;-70
2021/11/03 03:35:58;;;;;;;;;38.00;35.25;;;;;12.50;88.91;101108.50;4937469;29;10850;-70
2021/11/03 03:38:54;;;;;;;;;33.25;31.00;;;;;12.43;89.06;101102.66;4937311;29;10986;-70
2021/11/03 03:42:02;;;;;;;;;35.75;35.00;;;;;12.50;88.87;101093.84;4937383;29;10925;-69
2021/11/03 03:44:57;;;;;;;;;27.50;27.50;;;;;12.24;89.93;101072.56;4936317;29;11712;-69
2021/11/03 03:47:53;;;;;;;;;37.00;36.00;;;;;12.07;90.53;101071.81;4937022;29;11041;-70
2021/11/03 03:50:48;;;;;;;;;36.25;35.50;;;;;12.14;90.17;101064.63;4937304;29;11249;-69
2021/11/03 03:53:44;;;;;;;;;33.25;33.25;;;;;12.04;90.84;101058.59;4937135;29;10922;-70
2021/11/03 03:56:39;;;;;;;;;35.25;34.75;;;;;12.07;90.74;101064.31;4924401;29;11274;-70
2021/11/03 03:59:35;;;;;;;;;36.00;35.25;;;;;11.92;91.49;101065.66;4937173;29;11944;-70
2021/11/03 04:02:31;;;;;;;;;28.00;28.00;;;;;12.06;91.16;101068.22;4936085;29;11234;-69
2021/11/03 04:05:27;;;;;;;;;31.50;31.50;;;;;12.04;91.34;101073.31;4937008;29;10838;-69
2021/11/03 04:08:24;;;;;;;;;36.00;33.75;;;;;12.07;91.65;101075.41;4936123;29;10893;-69
2021/11/03 04:11:20;;;;;;;;;30.50;30.50;;;;;12.21;90.79;101080.75;4936915;29;11222;-70
2021/11/03 04:14:15;;;;;;;;;34.00;34.00;;;;;12.23;91.09;101082.03;4936814;29;10974;-70
2021/11/03 04:17:11;;;;;;;;;31.75;31.50;;;;;12.08;91.96;101079.00;4936475;29;10915;-68
2021/11/03 04:20:09;;;;;;;;;24.00;21.75;;;;;12.03;92.01;101077.19;4936404;29;10680;-68
2021/11/03 04:23:05;;;;;;;;;31.25;29.25;;;;;12.13;91.92;101076.03;4936491;29;10904;-68
2021/11/03 04:26:01;;;;;;;;;28.00;28.00;;;;;11.93;92.79;101070.06;4936506;29;11139;-68
2021/11/03 04:28:56;;;;;;;;;31.50;31.00;;;;;11.87;93.32;101063.06;4936096;29;10840;-69
2021/11/03 04:31:52;;;;;;;;;35.25;34.75;;;;;11.95;93.15;101069.72;4936468;29;10997;-68
2021/11/03 04:34:48;;;;;;;;;30.00;30.00;;;;;12.00;92.97;101063.19;4936333;29;11254;-69
2021/11/03 04:37:44;;;;;;;;;32.25;31.00;;;;;11.89;93.51;101062.75;4936209;29;11065;-69
2021/11/03 04:40:40;;;;;;;;;34.75;34.25;;;;;12.02;93.45;101066.44;4936345;29;11079;-69
2021/11/03 04:43:35;;;;;;;;;28.50;27.00;;;;;12.02;93.17;101069.22;4936216;29;11244;-68
2021/11/03 04:46:31;;;;;;;;;35.00;33.75;;;;;11.98;93.08;101071.84;4936118;29;11783;-68
2021/11/03 04:49:27;;;;;;;;;35.50;35.00;;;;;11.97;93.26;101078.53;4936019;29;11240;-68
2021/11/03 04:52:22;;;;;;;;;27.50;27.00;;;;;12.03;93.44;101085.50;4912348;29;11067;-69
2021/11/03 04:55:18;;;;;;;;;27.00;27.00;;;;;12.00;93.35;101086.19;4935556;29;10907;-69
2021/11/03 04:58:13;;;;;;;;;28.00;28.00;;;;;12.16;92.65;101092.00;4935909;29;10899;-69
2021/11/03 05:01:09;;;;;;;;;28.00;28.00;;;;;12.18;92.41;101090.50;4935930;29;10879;-69
2021/11/03 05:04:05;;;;;;;;;30.00;30.00;;;;;12.25;92.25;101107.47;4923108;29;11112;-68
2021/11/03 05:07:00;;;;;;;;;28.00;25.00;;;;;12.37;91.92;101109.53;4935784;29;10983;-68
2021/11/03 05:09:56;;;;;;;;;23.00;23.00;;;;;12.42;91.38;101103.81;4935662;29;11688;-68
2021/11/03 05:12:52;;;;;;;;;28.50;28.00;;;;;12.40;91.31;101110.84;4923400;29;10740;-69
2021/11/03 05:15:47;;;;;;;;;30.25;28.75;;;;;12.32;92.05;101111.69;4935302;29;11277;-68
2021/11/03 05:19:18;;;;;;;;;35.00;33.00;;;;;12.52;91.92;101110.94;5068012;27;13581;-69
2021/11/03 05:22:16;;;;;;;;;29.00;28.25;;;;;12.62;90.61;101105.00;5060761;28;11078;-69
2021/11/03 05:25:16;;;;;;;;;20.50;20.00;;;;;12.64;90.59;101101.91;5048504;28;10826;-69
2021/11/03 05:28:11;;;;;;;;;28.75;28.75;;;;;12.49;91.55;101111.59;5048387;28;10645;-69
2021/11/03 05:31:07;;;;;;;;;30.75;29.00;;;;;12.59;91.09;101113.19;5050735;28;10774;-69
2021/11/03 05:34:03;;;;;;;;;33.25;30.50;;;;;12.57;91.37;101115.47;5049762;28;10815;-69
2021/11/03 05:36:58;;;;;;;;;31.00;29.50;;;;;12.60;91.87;101123.97;5050567;28;10766;-70
2021/11/03 05:39:54;;;;;;;;;30.75;28.75;;;;;12.68;91.48;101130.63;5049685;28;10853;-69
2021/11/03 05:42:50;;;;;;;;;28.00;28.00;;;;;12.66;91.83;101130.97;5048675;28;10857;-69
2021/11/03 05:45:46;;;;;;;;;25.75;25.75;;;;;12.73;90.76;101127.66;5045726;28;10763;-69
2021/11/03 05:48:44;;;;;;;;;27.25;27.25;;;;;12.72;91.44;101137.91;5048503;28;10773;-69
2021/11/03 05:51:44;;;;;;;;;29.50;28.75;;;;;12.69;91.76;101135.00;5049382;28;10730;-69
2021/11/03 05:54:40;;;;;;;;;33.75;33.75;;;;;12.81;91.44;101140.69;5027988;28;10793;-69
2021/11/03 05:57:36;;;;;;;;;28.00;28.00;;;;;12.74;91.96;101143.97;5052475;28;11788;-69
2021/11/03 06:00:35;;;;;;;;;33.75;29.75;;;;;12.64;92.19;101147.09;5030310;28;10769;-69
2021/11/03 06:03:31;;;;;;;;;36.75;34.75;;;;;12.70;92.52;101142.19;5029453;28;10825;-69
2021/11/03 06:06:26;;;;;;;;;31.25;31.25;;;;;12.86;91.98;101146.00;5029638;28;10854;-69
2021/11/03 06:09:22;;;;;;;;;30.25;29.75;;;;;12.95;91.76;101148.75;5030910;28;10903;-69
2021/11/03 06:12:17;;;;;;;;;25.50;25.50;;;;;12.98;91.79;101148.91;5029331;28;10768;-70
2021/11/03 06:15:13;;;;;;;;;30.50;29.75;;;;;13.01;92.12;101145.44;5029318;28;11374;-69
2021/11/03 06:18:09;;;;;;;;;32.50;31.50;;;;;13.07;91.62;101155.19;5041759;28;10775;-70
2021/11/03 06:21:05;;;;;;;;;30.25;28.75;;;;;13.07;91.95;101155.19;5048476;28;10845;-70
2021/11/03 06:24:01;;;;;;;;;31.25;31.25;;;;;13.06;91.90;101159.13;5047898;28;10750;-70
2021/11/03 06:26:57;;;;;;;;;35.00;34.25;;;;;13.07;92.74;101160.75;5048323;28;10785;-70
2021/11/03 06:29:52;;;;;;;;;34.50;34.25;;;;;13.17;92.20;101167.06;5037217;28;10739;-70
2021/11/03 06:32:48;;;;;;;;;31.00;31.00;;;;;13.22;91.73;101164.13;5037015;28;10753;-70
2021/11/03 06:35:48;;;;;;;;;35.25;34.25;;;;;13.25;92.05;101169.00;5036334;28;10743;-70
2021/11/03 06:38:44;;;;;;;;;36.75;35.50;;;;;13.28;91.71;101183.03;5034559;28;10779;-70
2021/11/03 06:41:42;;;;;;;;;41.00;38.25;;;;;13.23;92.42;101174.09;5035401;28;10965;-71
2021/11/03 06:44:41;;;;;;;;;33.25;33.25;;;;;13.39;91.82;101177.06;5026628;28;10989;-71
2021/11/03 06:47:37;;;;;;;;;31.50;30.25;;;;;13.44;91.93;101186.03;5045525;28;10606;-71
2021/11/03 06:50:36;;;;;;;;;29.75;29.75;;;;;13.44;92.28;101185.22;5033566;28;10633;-71
2021/11/03 06:53:32;;;;;;;;;35.00;33.50;;;;;13.49;91.70;101185.00;5034330;28;10703;-68
2021/11/03 06:56:28;;;;;;;;;32.25;32.00;;;;;13.44;92.08;101190.78;5035830;28;10519;-68
2021/11/03 06:59:24;;;;;;;;;29.50;28.00;;;;;13.54;91.76;101187.59;5032858;28;10609;-69
2021/11/03 07:02:19;;;;;;;;;30.25;29.25;;;;;13.54;91.97;101190.38;5034501;28;10506;-68
2021/11/03 07:05:15;;;;;;;;;25.25;25.25;;;;;13.50;92.42;101184.69;5032762;28;10521;-68
2021/11/03 07:08:14;;;;;;;;;28.25;28.25;;;;;13.63;91.63;101185.53;5033716;28;10318;-67
2021/11/03 07:11:09;;;;;;;;;26.00;24.50;;;;;13.66;91.70;101186.84;5034917;28;10427;-68
2021/11/03 07:14:06;;;;;;;;;25.50;24.25;;;;;13.55;92.11;101187.25;5033046;28;10513;-69
2021/11/03 07:17:01;;;;;;;;;28.75;26.25;;;;;13.61;92.24;101180.34;5035899;28;10122;-69
2021/11/03 07:19:57;;;;;;;;;33.00;32.50;;;;;13.76;91.88;101176.13;5034921;28;10411;-69
2021/11/03 07:22:54;;;;;;;;;26.25;25.25;;;;;14.11;94.68;101178.59;5034599;28;10400;-68
2021/11/03 07:25:50;;;;;;;;;28.50;28.00;;;;;14.29;95.82;101180.03;5034060;28;10336;-69
2021/11/03 07:28:45;;;;;;;;;22.50;22.50;;;;;14.37;94.89;101189.44;5022744;28;10506;-69
2021/11/03 07:31:41;;;;;;;;;26.75;25.75;;;;;14.49;94.74;101180.31;5033869;28;10184;-68
2021/11/03 07:34:37;;;;;;;;;25.25;21.25;;;;;14.83;95.85;101182.69;5033933;28;10183;-68
2021/11/03 07:37:33;;;;;;;;;20.00;20.00;;;;;14.71;93.43;101185.44;5025248;28;10167;-69
2021/11/03 07:40:20;;;;;;;;;26.50;26.25;;;;;14.57;91.64;101184.97;5032102;28;10671;-69
2021/11/03 07:43:19;;;;;;;;;26.25;25.75;;;;;14.54;91.11;101185.66;5032230;28;10043;-69
2021/11/03 07:45:49;;;;;;;;;26.75;26.75;;;;;14.48;91.00;101185.06;5034095;28;10770;-70
2021/11/03 07:48:19;;;;;;;;;28.50;28.50;;;;;14.48;91.12;101181.47;5032980;28;10145;-69
2021/11/03 07:51:00;;;;;;;;;29.50;28.25;;;;;14.49;91.18;101185.88;5033985;28;10010;-70
2021/11/03 07:53:59;;;;;;;;;29.25;29.25;;;;;14.55;91.04;101188.09;5036483;28;10017;-69
2021/11/03 07:56:54;;;;;;;;;28.25;28.25;;;;;14.52;90.96;101188.78;5033466;28;10214;-70
2021/11/03 07:59:50;;;;;;;;;32.25;32.25;;;;;14.47;91.44;101183.44;5032028;28;10105;-70
2021/11/03 08:02:46;;;;;;;;;24.00;22.75;;;;;14.57;91.32;101185.78;5033316;28;10636;-71
2021/11/03 08:05:41;;;;;;;;;27.50;27.50;;;;;14.51;91.66;101187.16;5032450;28;9963;-71
2021/11/03 08:08:49;;;;;;;;;29.25;29.25;;;;;14.60;91.76;101190.66;5031646;28;10184;-72
2021/11/03 08:11:58;;;;;;;;;21.50;21.50;;;;;14.69;91.47;101193.34;5033534;28;9914;-72
2021/11/03 08:14:53;;;;;;;;;30.25;29.75;;;;;14.65;92.07;101196.00;5033311;28;9971;-71
2021/11/03 08:17:50;;;;;;;;;25.75;24.75;;;;;14.70;91.79;101195.75;5032579;28;10257;-71
2021/11/03 08:20:46;;;;;;;;;29.50;28.25;;;;;14.77;91.69;101200.75;5033277;28;10030;-70
2021/11/03 08:23:41;;;;;;;;;27.25;27.25;;;;;14.77;92.12;101199.94;5032370;28;10223;-70
2021/11/03 08:26:37;;;;;;;;;37.75;34.00;;;;;14.83;92.30;101198.56;5032845;28;10077;-70
2021/11/03 08:29:07;;;;;;;;;35.00;34.00;;;;;14.83;92.24;101202.16;5033569;28;10291;-70
2021/11/03 08:31:37;;;;;;;;;32.00;32.00;;;;;14.89;91.80;101200.78;5032998;28;10070;-71
2021/11/03 08:34:34;;;;;;;;;29.50;29.50;;;;;14.90;91.87;101199.63;5033119;28;10065;-70
2021/11/03 08:37:19;;;;;;;;;36.75;34.75;;;;;14.94;92.01;101205.28;5032552;28;10082;-70
2021/11/03 08:40:17;;;;;;;;;33.25;32.75;;;;;14.98;92.07;101209.03;5037806;28;10262;-71
2021/11/03 08:42:46;;;;;;;;;34.50;33.75;;;;;14.94;92.44;101206.09;5030736;28;10231;-71
2021/11/03 08:45:42;;;;;;;;;27.50;27.25;;;;;14.98;91.92;101204.25;5014641;28;10298;-71
2021/11/03 08:48:38;;;;;;;;;22.00;22.00;;;;;14.98;92.15;101203.44;5036128;28;9948;-71
2021/11/03 08:51:34;;;;;;;;;27.25;24.50;;;;;14.99;92.17;101205.06;5022548;28;9619;-69
2021/11/03 08:54:33;;;;;;;;;24.00;24.00;;;;;14.99;92.04;101205.88;5032429;28;9713;-70
2021/11/03 08:57:35;;;;;;;;;30.25;28.75;;;;;14.99;92.72;101202.28;5031159;28;9795;-70
2021/11/03 09:00:35;;;;;;;;;27.75;27.25;;;;;14.92;93.03;101197.28;5032791;28;10803;-70
2021/11/03 09:03:32;;;;;;;;;28.50;28.00;;;;;14.94;93.31;101203.31;5033092;28;10013;-70
2021/11/03 09:06:28;;;;;;;;;28.00;27.50;;;;;14.87;94.05;101194.72;5032659;28;9895;-70
2021/11/03 09:09:25;;;;;;;;;47.25;40.75;;;;;14.91;94.00;101200.44;5026524;28;10686;-69
2021/11/03 09:11:52;;;;;;;;;52.50;44.50;;;;;14.93;94.25;101200.88;5032999;28;10688;-69
2021/11/03 09:14:49;;;;;;;;;78.25;62.75;;;;;14.85;94.40;101207.38;5033856;28;11747;-69
2021/11/03 09:17:45;;;;;;;;;69.75;56.00;;;;;14.86;94.25;101200.66;5031477;28;11647;-70
2021/11/03 09:20:27;;;;;;;;;24.75;22.50;;;;;14.76;94.99;101196.34;5031939;28;11573;-70
2021/11/03 09:22:54;;;;;;;;;25.50;24.50;;;;;14.91;95.36;101195.66;5031994;28;9794;-68
2021/11/03 09:25:23;;;;;;;;;49.25;42.75;;;;;15.03;95.93;101200.44;5032598;28;10490;-69
2021/11/03 09:28:23;;;;;;;;;44.00;39.25;;;;;15.07;96.08;101195.78;5032323;28;11662;-69
2021/11/03 09:30:53;;;;;;;;;36.00;34.25;;;;;15.22;96.23;101203.44;5032883;28;10321;-69
2021/11/03 09:33:21;;;;;;;;;55.25;45.50;;;;;15.10;95.64;101202.63;5032652;28;10115;-69
2021/11/03 09:35:51;;;;;;;;;32.75;31.25;;;;;15.07;94.74;101195.78;5031509;28;10524;-69
2021/11/03 09:38:25;;;;;;;;;31.75;31.50;;;;;15.11;94.98;101202.28;5032509;28;9950;-69
2021/11/03 09:41:16;;;;;;;;;56.25;47.50;;;;;15.27;95.97;101200.41;5033058;28;10143;-69
2021/11/03 09:43:58;;;;;;;;;29.50;29.00;;;;;15.15;93.96;101194.84;5032416;28;11154;-69
2021/11/03 09:46:37;;;;;;;;;31.00;31.00;;;;;15.23;94.71;101195.88;5032546;28;10089;-68
2021/11/03 09:49:27;;;;;;;;;25.25;25.25;;;;;15.09;94.52;101199.03;5032712;28;10349;-68
2021/11/03 09:52:11;;;;;;;;;39.25;37.00;;;;;15.23;94.34;101196.69;5032439;28;9889;-68
2021/11/03 09:54:39;;;;;;;;;37.50;35.25;;;;;15.27;95.18;101196.81;5032865;28;10398;-68
2021/11/03 09:57:07;;;;;;;;;36.25;34.25;;;;;15.36;94.49;101191.91;5032374;28;10416;-68
2021/11/03 09:59:48;;;;;;;;;25.00;25.00;;;;;15.43;94.70;101194.13;5032574;28;10121;-68
2021/11/03 10:02:53;;;;;;;;;27.25;26.75;;;;;15.40;94.23;101200.38;5032475;28;9719;-69
2021/11/03 10:05:46;;;;;;;;;25.75;25.75;;;;;15.47;94.38;101193.03;5034573;28;9768;-68
2021/11/03 10:08:17;;;;;;;;;26.25;25.75;;;;;15.42;93.48;101198.06;5036167;28;9778;-69
2021/11/03 10:10:57;;;;;;;;;40.50;37.25;;;;;15.27;93.61;101200.41;5035987;28;9956;-69
2021/11/03 10:13:26;;;;;;;;;26.00;26.00;;;;;15.19;93.64;101206.13;5036177;28;10345;-69
2021/11/03 10:16:02;;;;;;;;;27.50;27.00;;;;;15.07;93.65;101201.34;5035060;28;9784;-69
2021/11/03 10:18:35;;;;;;;;;29.00;28.00;;;;;14.97;93.90;101207.41;5035778;28;9774;-69
2021/11/03 10:21:24;;;;;;;;;31.00;31.00;;;;;15.07;95.02;101206.13;5036080;28;9772;-69
2021/11/03 10:24:24;;;;;;;;;32.00;32.00;;;;;15.05;95.03;101205.66;5034665;28;9943;-69
2021/11/03 10:27:20;;;;;;;;;77.75;64.00;;;;;15.22;94.29;101209.00;5027988;28;9951;-70
2021/11/03 10:29:51;;;;;;;;;30.00;30.00;;;;;15.42;94.56;101209.22;5034390;28;11547;-69
2021/11/03 10:32:27;;;;;;;;;30.25;30.25;;;;;15.34;93.47;101202.63;5034479;28;9911;-69
2021/11/03 10:35:04;;;;;;;;;27.25;25.00;;;;;15.41;93.99;101204.78;5035684;28;9629;-69
2021/11/03 10:37:43;;;;;;;;;40.00;37.00;;;;;15.26;93.00;101207.16;5035683;28;9821;-70
2021/11/03 10:40:27;;;;;;;;;32.00;32.00;;;;;15.26;93.12;101209.13;5035602;28;10095;-69
2021/11/03 10:43:15;;;;;;;;;29.50;29.50;;;;;15.23;94.19;101210.63;5035565;28;9955;-69
2021/11/03 10:45:42;;;;;;;;;35.00;33.25;;;;;15.27;93.92;101208.78;5049684;28;9677;-69
2021/11/03 10:48:23;;;;;;;;;37.00;35.00;;;;;15.49;92.75;101212.22;5034914;28;10315;-70
2021/11/03 10:51:16;;;;;;;;;40.75;37.75;;;;;15.55;92.53;101206.03;5033952;28;9919;-70
2021/11/03 10:54:19;;;;;;;;;39.75;35.75;;;;;15.55;92.53;101219.16;5034497;28;10347;-69
2021/11/03 10:57:24;;;;;;;;;30.00;29.50;;;;;15.51;92.21;101210.69;5034104;28;10227;-70
2021/11/03 10:59:59;;;;;;;;;21.50;21.00;;;;;15.46;91.25;101213.72;5033533;28;9896;-69
2021/11/03 11:03:18;;;;;;;;;34.00;33.00;;;;;15.28;92.52;101213.19;5035653;28;9754;-70
2021/11/03 11:06:20;;;;;;;;;41.25;37.50;;;;;15.41;92.21;101218.72;5034434;28;9764;-70
2021/11/03 11:09:25;;;;;;;;;30.50;30.50;;;;;15.24;92.33;101222.56;5034475;28;10155;-68
2021/11/03 11:11:58;;;;;;;;;13.00;13.00;;;;;15.27;92.66;101219.91;5030948;28;9960;-69
2021/11/03 11:14:57;;;;;;;;;23.50;23.50;;;;;15.19;93.15;101218.06;5037146;28;10697;-69
2021/11/03 11:18:11;;;;;;;;;26.25;26.25;;;;;15.22;92.98;101217.34;5029885;28;9707;-71
2021/11/03 11:21:25;;;;;;;;;30.75;30.00;;;;;15.13;92.88;101222.25;5023256;28;9791;-69
2021/11/03 11:24:36;;;;;;;;;44.00;39.00;;;;;15.19;93.60;101214.47;5032805;28;9866;-69
2021/11/03 11:27:54;;;;;;;;;50.75;40.75;;;;;15.16;93.58;101212.38;5033885;28;10397;-70
2021/11/03 11:31:04;;;;;;;;;118.00;113.75;;;;;15.13;93.98;101216.69;5034190;28;10595;-70
2021/11/03 11:34:08;;;;;;;;;51.75;43.25;;;;;15.25;93.33;101213.84;5014047;28;11667;-69
2021/11/03 11:37:21;;;;;;;;;88.25;85.50;;;;;15.23;92.93;101220.97;5014004;28;10699;-69
2021/11/03 11:40:25;;;;;;;;;33.25;32.00;;;;;15.13;93.49;101222.25;5015121;28;11632;-69
2021/11/03 11:43:36;;;;;;;;;21.25;21.25;;;;;15.07;94.14;101215.28;5022049;28;10248;-70
2021/11/03 11:46:33;;;;;;;;;19.25;19.25;;;;;15.16;93.56;101226.28;5032419;28;10468;-69
2021/11/03 11:49:38;;;;;;;;;22.25;22.25;;;;;15.12;93.67;101225.38;5033564;28;9857;-69
2021/11/03 11:52:23;;;;;;;;;30.50;29.50;;;;;15.06;94.23;101224.78;5030728;28;9644;-69
2021/11/03 11:55:26;;;;;;;;;16.75;15.75;;;;;15.09;94.45;101221.31;5035137;28;9782;-68
2021/11/03 11:58:25;;;;;;;;;20.50;20.50;;;;;15.10;94.85;101231.28;5031945;28;9782;-69
2021/11/03 12:01:52;;;;;;;;;22.75;22.75;;;;;15.14;94.22;101226.66;5056692;28;9882;-68
2021/11/03 12:04:29;;;;;;;;;23.75;23.00;;;;;15.14;94.78;101221.09;5030187;28;9717;-69
2021/11/03 12:07:28;;;;;;;;;23.50;23.50;;;;;15.05;94.75;101220.38;5031387;28;9781;-68
2021/11/03 12:10:27;;;;;;;;;25.25;25.25;;;;;15.11;94.75;101223.75;5044562;28;10058;-70
2021/11/03 12:13:30;;;;;;;;;24.25;22.75;;;;;15.06;95.56;101222.00;5044415;28;9553;-69
2021/11/03 12:16:34;;;;;;;;;16.75;16.75;;;;;15.06;95.49;101230.38;5031689;28;9847;-69
2021/11/03 12:19:54;;;;;;;;;22.50;22.50;;;;;14.92;95.55;101230.72;5031674;28;9782;-69
2021/11/03 12:22:36;;;;;;;;;19.50;19.50;;;;;14.99;95.77;101232.91;5044649;28;9749;-69
2021/11/03 12:25:31;;;;;;;;;29.00;27.75;;;;;15.00;95.43;101240.13;5030169;28;9795;-71
2021/11/03 12:28:12;;;;;;;;;21.50;21.50;;;;;15.04;95.52;101246.63;5063436;28;9857;-69
2021/11/03 12:31:41;;;;;;;;;25.00;23.50;;;;;15.11;94.99;101251.63;5018885;28;9564;-69
2021/11/03 12:34:10;;;;;;;;;27.75;24.50;;;;;15.21;94.50;101251.16;5032099;28;9707;-70
2021/11/03 12:36:47;;;;;;;;;21.50;21.50;;;;;15.28;93.86;101259.75;5032010;28;9732;-70
2021/11/03 12:39:41;;;;;;;;;18.00;18.00;;;;;15.27;93.70;101263.69;5033153;28;9594;-70
2021/11/03 12:42:32;;;;;;;;;23.75;23.75;;;;;15.24;94.21;101270.75;5038590;28;9603;-69
2021/11/03 12:46:03;;;;;;;;;28.75;28.25;;;;;15.22;94.69;101259.16;5052740;28;9608;-71
2021/11/03 12:48:43;;;;;;;;;23.00;21.33;;;;;15.12;95.01;101270.78;5044153;28;9949;-71
2021/11/03 12:51:28;;;;;;;;;21.50;21.50;;;;;15.13;94.66;101269.59;5034209;28;9339;-70
2021/11/03 12:54:32;;;;;;;;;21.00;21.00;;;;;15.14;94.87;101267.63;5032633;28;9706;-70
2021/11/03 12:57:29;;;;;;;;;21.00;21.00;;;;;15.18;94.73;101280.53;5030842;28;9779;-70
2021/11/03 13:00:34;;;;;;;;;19.75;19.75;;;;;15.07;95.40;101270.19;5031544;28;9559;-69
2021/11/03 13:03:32;;;;;;;;;18.75;18.75;;;;;15.14;94.91;101278.78;5032440;28;9772;-71
2021/11/03 13:06:34;;;;;;;;;19.50;18.25;;;;;15.04;94.84;101280.06;5032625;28;9723;-71
2021/11/03 13:09:05;;;;;;;;;20.50;20.50;;;;;15.02;95.36;101282.34;5032919;28;9748;-70
2021/11/03 13:12:02;;;;;;;;;18.50;18.50;;;;;15.07;95.54;101284.91;5031082;28;9468;-71
2021/11/03 13:14:34;;;;;;;;;18.00;17.50;;;;;14.95;95.76;101285.75;5032638;28;9545;-71
2021/11/03 13:17:35;;;;;;;;;22.50;22.50;;;;;15.02;95.81;101296.28;5055646;28;9630;-71